Time;durP1;ratioP1;P1;durP2;ratioP2;P2;SDS_P1;SDS_P2;PMS_P1;PMS_P2;Temp;Humidity;BMP_temperature;BMP_pressure;BME280_temperature;BME280_humidity;BME280_pressure;Samples;Min_cycle;Max_cycle;Signal;HPM_P1;HPM_P2
2021/04/08 00:01:12;;;;;;;10.05;5.47;;;;;;;1.47;81.89;98992.06;1716898;80;21160;-48
2021/04/08 00:03:41;;;;;;;8.90;5.12;;;;;;;1.46;81.80;98992.98;1717500;80;21121;-47
2021/04/08 00:09:10;;;;;;;8.78;5.90;;;;;;;1.48;81.78;99000.44;1752931;79;22979;-46
2021/04/08 00:11:39;;;;;;;8.95;6.03;;;;;;;1.41;81.84;99001.52;1730177;82;21014;-48
2021/04/08 00:14:08;;;;;;;13.72;5.95;;;;;;;1.39;81.99;99000.70;1692947;83;21415;-47
2021/04/08 00:16:37;;;;;;;8.50;5.78;;;;;;;1.38;82.00;99005.56;1693096;83;21316;-48
2021/04/08 00:19:06;;;;;;;10.00;5.90;;;;;;;1.37;82.11;99011.80;1692822;82;21041;-47
2021/04/08 00:21:34;;;;;;;11.43;7.08;;;;;;;1.35;82.22;99005.66;1695248;83;21009;-49
2021/04/08 00:24:03;;;;;;;10.93;6.33;;;;;;;1.34;82.30;99012.35;1694814;82;21005;-48
2021/04/08 00:26:31;;;;;;;10.18;5.95;;;;;;;1.31;82.49;99019.92;1695348;82;21403;-48
2021/04/08 00:28:59;;;;;;;8.75;6.60;;;;;;;1.29;82.62;99024.41;1692605;83;20978;-48
2021/04/08 00:31:27;;;;;;;11.12;6.67;;;;;;;1.28;82.79;99031.97;1694809;82;21010;-48
2021/04/08 00:33:57;;;;;;;10.72;5.70;;;;;;;1.24;82.86;99031.62;1694580;82;21117;-47
2021/04/08 00:36:26;;;;;;;10.72;7.10;;;;;;;1.24;82.96;99036.93;1695190;82;21002;-47
2021/04/08 00:38:54;;;;;;;9.20;6.72;;;;;;;1.21;82.94;99030.35;1697471;82;21402;-47
2021/04/08 00:41:24;;;;;;;11.43;5.83;;;;;;;1.19;83.13;99041.48;1696965;82;21213;-49
2021/04/08 00:43:52;;;;;;;9.48;5.92;;;;;;;1.17;83.31;99048.59;1666712;83;21188;-48
2021/04/08 00:46:20;;;;;;;10.82;6.75;;;;;;;1.14;83.42;99042.91;1696127;82;21539;-47
2021/04/08 00:48:48;;;;;;;11.63;7.05;;;;;;;1.13;83.42;99041.63;1695562;83;21554;-47
2021/04/08 00:51:15;;;;;;;8.20;6.17;;;;;;;1.11;83.55;99046.08;1694210;83;22268;-48
2021/04/08 00:53:44;;;;;;;11.30;6.70;;;;;;;1.11;83.66;99051.39;1692542;82;21569;-51
2021/04/08 00:56:12;;;;;;;10.53;6.87;;;;;;;1.07;83.73;99049.74;1696248;82;21049;-51
2021/04/08 00:58:40;;;;;;;10.15;7.05;;;;;;;1.07;83.81;99055.05;1701113;83;21593;-50
2021/04/08 01:01:08;;;;;;;10.38;7.12;;;;;;;1.08;83.79;99056.79;1694468;83;21132;-50
2021/04/08 01:03:36;;;;;;;11.88;8.05;;;;;;;1.07;83.83;99060.36;1694603;83;22292;-50
2021/04/08 01:06:05;;;;;;;13.13;8.38;;;;;;;1.05;83.89;99058.59;1692015;83;21076;-46
2021/04/08 01:08:36;;;;;;;11.35;7.08;;;;;;;1.03;83.97;99057.77;1694044;82;21045;-46
2021/04/08 01:11:04;;;;;;;12.40;6.85;;;;;;;1.03;84.05;99059.09;1696146;82;21022;-46
2021/04/08 01:13:33;;;;;;;13.00;7.10;;;;;;;1.00;84.06;99057.82;1695166;82;21961;-46
2021/04/08 01:16:06;;;;;;;11.15;7.97;;;;;;;1.00;84.03;99064.45;1697563;83;22273;-46
2021/04/08 01:18:53;;;;;;;12.65;7.33;;;;;;;1.00;84.02;99071.55;1673102;83;21060;-46
2021/04/08 01:21:39;;;;;;;9.85;6.40;;;;;;;1.00;84.01;99068.44;1695560;82;21021;-46
2021/04/08 01:24:45;;;;;;;11.43;6.67;;;;;;;1.04;83.96;99064.81;1815469;76;22801;-47
2021/04/08 01:27:40;;;;;;;14.80;7.25;;;;;;;1.00;83.93;99072.88;1774252;77;20973;-46
2021/04/08 01:30:17;;;;;;;9.95;6.70;;;;;;;0.98;83.86;99073.38;1756698;79;21392;-46
2021/04/08 01:32:53;;;;;;;11.70;6.58;;;;;;;0.99;83.73;99083.95;1757212;79;21557;-47
2021/04/08 01:35:29;;;;;;;9.73;7.05;;;;;;;0.98;83.66;99084.87;1758386;79;21013;-45
2021/04/08 01:38:23;;;;;;;10.18;6.95;;;;;;;0.99;83.57;99085.28;1759654;79;21129;-47
2021/04/08 01:40:52;;;;;;;11.25;7.55;;;;;;;0.98;83.41;99091.50;1758728;79;21577;-47
2021/04/08 01:43:26;;;;;;;15.78;7.78;;;;;;;1.00;83.28;99094.11;1748660;79;21362;-47
2021/04/08 01:45:56;;;;;;;11.95;9.40;;;;;;;1.00;83.14;99097.64;1761602;79;20981;-48
2021/04/08 01:48:24;;;;;;;10.78;7.30;;;;;;;1.00;83.17;99092.33;1757196;79;20981;-47
2021/04/08 01:50:56;;;;;;;12.58;8.10;;;;;;;1.01;83.03;99107.38;1758880;79;21162;-47
2021/04/08 01:53:24;;;;;;;14.63;9.03;;;;;;;1.01;82.97;99112.69;1759062;79;21004;-48
2021/04/08 01:55:56;;;;;;;10.40;7.65;;;;;;;1.01;82.88;99114.02;1753276;79;21210;-47
2021/04/08 01:58:32;;;;;;;14.13;8.25;;;;;;;1.07;82.84;99118.31;1819558;75;22774;-47
2021/04/08 02:01:00;;;;;;;12.90;7.33;;;;;;;1.00;82.83;99128.17;1797442;77;21013;-47
2021/04/08 02:03:29;;;;;;;13.00;8.15;;;;;;;0.98;82.86;99133.98;1761859;79;21572;-48
2021/04/08 02:06:00;;;;;;;14.28;8.48;;;;;;;0.96;82.88;99133.16;1768672;79;20998;-49
2021/04/08 02:08:27;;;;;;;14.03;8.28;;;;;;;0.95;82.95;99135.36;1762772;78;21044;-48
2021/04/08 02:10:57;;;;;;;11.60;7.97;;;;;;;0.94;82.99;99142.91;1737839;80;21025;-47
2021/04/08 02:13:25;;;;;;;14.78;9.20;;;;;;;0.94;83.08;99145.56;1767109;79;21034;-49
2021/04/08 02:15:54;;;;;;;17.57;9.25;;;;;;;0.92;83.13;99146.52;1724126;80;21040;-48
2021/04/08 02:18:23;;;;;;;13.38;8.90;;;;;;;0.91;83.18;99160.24;1769445;79;20982;-51
2021/04/08 02:20:52;;;;;;;15.53;9.75;;;;;;;0.91;83.19;99161.58;1772755;80;21033;-51
2021/04/08 02:23:23;;;;;;;15.95;9.73;;;;;;;0.90;83.23;99161.58;1727091;80;21152;-51
2021/04/08 02:25:53;;;;;;;15.75;9.13;;;;;;;0.89;83.28;99164.69;1767542;78;20959;-50
2021/04/08 02:28:21;;;;;;;16.05;10.50;;;;;;;0.90;83.18;99173.06;1775308;79;21536;-51
2021/04/08 02:30:50;;;;;;;13.13;9.30;;;;;;;0.90;83.16;99174.85;1768393;79;21143;-50
2021/04/08 02:33:24;;;;;;;16.20;10.40;;;;;;;0.89;83.21;99179.29;1726669;80;20989;-50
2021/04/08 02:35:52;;;;;;;16.15;11.40;;;;;;;0.87;83.17;99181.11;1773749;79;21085;-50
2021/04/08 02:38:27;;;;;;;15.32;10.30;;;;;;;0.87;83.18;99186.42;1768975;79;21111;-50
2021/04/08 02:40:55;;;;;;;17.50;11.93;;;;;;;0.88;83.17;99188.16;1774427;79;21376;-50
2021/04/08 02:43:23;;;;;;;14.93;10.63;;;;;;;0.86;83.16;99187.34;1763501;79;20997;-50
2021/04/08 02:45:53;;;;;;;15.95;11.28;;;;;;;0.89;83.10;99195.22;1771201;79;20973;-50
2021/04/08 02:48:22;;;;;;;14.33;9.95;;;;;;;0.89;83.07;99191.69;1766338;79;21139;-51
2021/04/08 02:50:52;;;;;;;16.82;11.10;;;;;;;0.87;83.00;99197.04;1772709;79;20994;-53
2021/04/08 02:53:48;;;;;;;17.07;10.75;;;;;;;0.85;83.01;99198.83;1769948;79;21500;-54
2021/04/08 02:56:29;;;;;;;17.87;10.72;;;;;;;0.84;82.99;99201.06;1774741;79;21118;-50
2021/04/08 02:59:05;;;;;;;15.97;10.70;;;;;;;0.84;82.87;99208.16;1765065;79;21572;-47
2021/04/08 03:02:10;;;;;;;17.10;10.15;;;;;;;0.88;82.68;99212.05;1809169;76;22874;-46
2021/04/08 03:04:45;;;;;;;13.22;10.13;;;;;;;0.83;82.73;99213.92;1759186;79;20926;-52
2021/04/08 03:07:13;;;;;;;20.32;11.40;;;;;;;0.83;82.64;99217.91;1762034;79;21530;-52
2021/04/08 03:09:43;;;;;;;13.83;10.48;;;;;;;0.81;82.61;99214.88;1759971;79;21017;-52
2021/04/08 03:12:13;;;;;;;16.80;10.05;;;;;;;0.80;82.59;99224.62;1760960;79;20965;-51
2021/04/08 03:14:46;;;;;;;16.65;9.55;;;;;;;0.78;82.37;99230.39;1758951;79;20938;-51
2021/04/08 03:17:18;;;;;;;18.00;10.20;;;;;;;0.79;82.26;99230.80;1761493;79;20962;-51
2021/04/08 03:19:46;;;;;;;16.73;11.43;;;;;;;0.80;82.13;99239.21;1735249;79;21353;-46
2021/04/08 03:22:16;;;;;;;18.37;11.00;;;;;;;0.84;81.98;99239.55;1759258;79;21032;-49
2021/04/08 03:24:44;;;;;;;14.53;9.90;;;;;;;0.84;81.65;99250.17;1757899;79;20989;-47
2021/04/08 03:27:12;;;;;;;14.43;10.40;;;;;;;0.83;81.59;99251.08;1763701;79;20982;-47
2021/04/08 03:29:40;;;;;;;17.12;10.30;;;;;;;0.85;81.46;99246.60;1765745;79;21097;-47
2021/04/08 03:32:10;;;;;;;15.93;9.53;;;;;;;0.86;81.35;99256.34;1755927;79;22117;-47
2021/04/08 03:34:46;;;;;;;20.32;11.05;;;;;;;0.90;81.15;99256.68;1805099;76;23270;-46
2021/04/08 03:37:15;;;;;;;18.73;10.28;;;;;;;0.85;81.10;99259.88;1766057;77;21123;-46
2021/04/08 03:39:44;;;;;;;15.98;9.63;;;;;;;0.87;80.85;99265.18;1741464;80;22241;-46
2021/04/08 03:42:14;;;;;;;18.60;11.40;;;;;;;0.85;80.75;99271.81;1749981;78;20993;-47
2021/04/08 03:44:51;;;;;;;15.38;10.08;;;;;;;0.89;80.86;99268.21;1856007;76;22791;-50
2021/04/08 03:47:20;;;;;;;18.95;12.03;;;;;;;0.85;80.76;99273.14;1741215;78;21097;-46
2021/04/08 03:49:49;;;;;;;19.52;13.05;;;;;;;0.86;80.74;99279.36;1761933;79;21417;-48
2021/04/08 03:52:18;;;;;;;19.30;11.85;;;;;;;0.84;80.70;99274.05;1765850;79;21515;-50
2021/04/08 03:54:48;;;;;;;18.67;10.93;;;;;;;0.87;80.42;99279.32;1762200;79;21006;-50
2021/04/08 03:57:19;;;;;;;16.07;11.10;;;;;;;0.87;80.29;99283.30;1764099;79;21023;-51
2021/04/08 03:59:47;;;;;;;;;;;;;;;0.87;80.33;99287.28;1764083;78;21264;-49
2021/04/08 04:02:16;;;;;;;20.50;12.75;;;;;;;0.87;80.16;99291.27;1762468;79;21370;-49
2021/04/08 04:04:44;;;;;;;19.52;12.18;;;;;;;0.87;80.00;99291.27;1732688;80;21040;-50
2021/04/08 04:07:13;;;;;;;21.37;12.28;;;;;;;0.89;79.86;99299.19;1764756;79;21589;-50
2021/04/08 04:09:41;;;;;;;17.80;11.68;;;;;;;0.90;79.81;99296.50;1766697;79;20990;-49
2021/04/08 04:12:12;;;;;;;17.98;12.50;;;;;;;0.93;79.57;99297.78;1764624;79;21520;-46
2021/04/08 04:14:40;;;;;;;18.40;10.95;;;;;;;0.93;79.48;99303.09;1764077;79;25827;-49
2021/04/08 04:17:25;;;;;;;22.77;13.40;;;;;;;0.94;79.29;99307.48;1764077;78;21150;-47
2021/04/08 04:19:54;;;;;;;17.60;12.35;;;;;;;0.96;79.24;99304.80;1764793;79;21126;-46
2021/04/08 04:22:24;;;;;;;20.72;13.13;;;;;;;0.99;79.12;99302.97;1757815;80;21113;-48
2021/04/08 04:24:52;;;;;;;21.15;13.25;;;;;;;0.99;78.92;99305.63;1763280;78;21237;-46
2021/04/08 04:27:20;;;;;;;18.60;12.47;;;;;;;1.04;78.92;99310.40;1763036;79;21314;-47
2021/04/08 04:29:48;;;;;;;20.72;13.35;;;;;;;1.07;78.87;99312.59;1762867;78;21141;-47
2021/04/08 04:32:16;;;;;;;32.28;18.80;;;;;;;1.07;78.95;99320.10;1764714;78;21034;-46
2021/04/08 04:34:43;;;;;;;21.20;13.15;;;;;;;1.10;78.89;99320.48;1762792;78;21137;-47
2021/04/08 04:37:12;;;;;;;22.20;14.20;;;;;;;1.14;78.62;99319.53;1763675;78;21571;-47
2021/04/08 04:39:40;;;;;;;20.55;13.43;;;;;;;1.19;78.47;99322.97;1764800;79;21376;-46
2021/04/08 04:42:08;;;;;;;17.80;12.50;;;;;;;1.23;78.11;99316.70;1766378;79;21133;-54
2021/04/08 04:44:38;;;;;;;19.67;12.23;;;;;;;1.28;77.86;99330.31;1764321;79;21142;-51
2021/04/08 04:47:07;;;;;;;18.80;12.00;;;;;;;1.30;77.68;99332.93;1762209;80;21161;-47
2021/04/08 04:49:35;;;;;;;19.70;13.25;;;;;;;1.33;77.51;99332.85;1761730;78;21114;-47
2021/04/08 04:52:04;;;;;;;23.50;13.83;;;;;;;1.38;77.05;99340.28;1761111;78;21209;-47
2021/04/08 04:54:32;;;;;;;17.82;12.47;;;;;;;1.42;76.58;99343.30;1761312;79;21038;-47
2021/04/08 04:57:00;;;;;;;21.00;13.55;;;;;;;1.48;76.24;99348.49;1762856;79;21599;-47
2021/04/08 04:59:28;;;;;;;28.57;13.88;;;;;;;1.53;76.16;99347.95;1764091;79;21100;-48
2021/04/08 05:01:56;;;;;;;21.60;13.53;;;;;;;1.56;75.81;99343.91;1762612;79;21220;-47
2021/04/08 05:04:24;;;;;;;23.57;14.33;;;;;;;1.62;75.69;99341.58;1733827;79;21978;-50
2021/04/08 05:06:52;;;;;;;18.35;11.75;;;;;;;1.67;75.72;99342.36;1761861;78;21018;-51
2021/04/08 05:09:20;;;;;;;25.35;14.15;;;;;;;1.74;75.19;99345.76;1763861;78;20983;-50
2021/04/08 05:11:49;;;;;;;19.45;12.75;;;;;;;1.78;75.07;99340.80;1762976;78;21122;-49
2021/04/08 05:14:17;;;;;;;23.27;13.55;;;;;;;1.83;74.75;99342.45;1763805;79;21069;-50
2021/04/08 05:16:45;;;;;;;22.67;13.25;;;;;;;1.90;74.64;99349.84;1765764;79;22191;-51
2021/04/08 05:19:13;;;;;;;21.48;13.40;;;;;;;1.96;74.59;99348.37;1734585;80;21029;-49
2021/04/08 05:21:42;;;;;;;19.37;12.70;;;;;;;2.03;74.37;99356.66;1766689;78;21023;-48
2021/04/08 05:24:10;;;;;;;23.65;14.68;;;;;;;2.08;74.16;99357.43;1768090;78;20986;-48
2021/04/08 05:26:38;;;;;;;20.37;14.07;;;;;;;2.13;74.25;99361.74;1765246;78;21065;-48
2021/04/08 05:29:05;;;;;;;17.92;12.10;;;;;;;2.19;74.17;99366.50;1762261;78;21371;-48
2021/04/08 05:31:33;;;;;;;22.67;14.47;;;;;;;2.24;73.85;99374.38;1768404;78;21232;-48
2021/04/08 05:34:02;;;;;;;20.02;13.93;;;;;;;2.24;73.91;99363.73;1765874;78;21021;-49
2021/04/08 05:36:30;;;;;;;21.80;13.32;;;;;;;2.28;73.33;99364.06;1761992;78;20987;-53
2021/04/08 05:38:58;;;;;;;21.12;15.20;;;;;;;2.27;73.08;99376.95;1763992;78;21764;-51
2021/04/08 05:41:27;;;;;;;23.40;14.95;;;;;;;2.25;73.27;99372.13;1764775;78;21376;-53
2021/04/08 05:43:55;;;;;;;26.33;16.05;;;;;;;2.26;73.54;99373.88;1766771;78;21165;-51
2021/04/08 05:46:22;;;;;;;26.27;15.08;;;;;;;2.29;73.76;99380.02;1770096;78;20998;-52
2021/04/08 05:48:50;;;;;;;28.05;18.32;;;;;;;2.40;73.81;99387.75;1769294;78;21451;-51
2021/04/08 05:51:18;;;;;;;28.87;18.73;;;;;;;2.51;73.94;99385.71;1772213;78;21232;-52
2021/04/08 05:53:47;;;;;;;23.85;15.70;;;;;;;2.67;73.78;99384.02;1771540;78;21863;-52
2021/04/08 05:56:15;;;;;;;25.00;15.65;;;;;;;2.77;73.67;99386.42;1772205;78;21845;-53
2021/04/08 05:58:44;;;;;;;23.55;15.13;;;;;;;2.86;73.44;99386.63;1770537;78;21034;-51
2021/04/08 06:01:12;;;;;;;22.75;15.78;;;;;;;2.88;73.47;99393.68;1770090;78;21129;-52
2021/04/08 06:03:40;;;;;;;23.35;16.00;;;;;;;2.90;73.50;99382.98;1741697;80;21614;-53
2021/04/08 06:06:09;;;;;;;26.00;17.00;;;;;;;2.93;73.43;99399.33;1773189;78;22289;-52
2021/04/08 06:08:37;;;;;;;29.23;17.65;;;;;;;2.95;73.50;99402.39;1769036;78;21493;-49
2021/04/08 06:11:06;;;;;;;24.70;16.37;;;;;;;2.97;73.42;99405.87;1769427;78;21011;-50
2021/04/08 06:13:37;;;;;;;27.10;17.02;;;;;;;2.94;73.33;99413.09;1772580;78;21730;-52
2021/04/08 06:16:07;;;;;;;23.52;15.78;;;;;;;2.89;73.24;99429.17;1767322;78;21046;-51
2021/04/08 06:18:36;;;;;;;23.67;14.38;;;;;;;2.85;73.55;99425.70;1771397;78;21337;-51
2021/04/08 06:21:04;;;;;;;27.90;16.65;;;;;;;2.87;73.78;99430.98;1768832;78;21078;-53
2021/04/08 06:23:33;;;;;;;22.93;15.68;;;;;;;2.87;73.92;99424.32;1770351;78;21586;-53
2021/04/08 06:26:01;;;;;;;24.90;16.17;;;;;;;2.91;74.21;99423.34;1772631;78;21139;-54
2021/04/08 06:28:29;;;;;;;25.80;15.98;;;;;;;2.92;74.37;99421.09;1769760;78;20991;-53
2021/04/08 06:30:57;;;;;;;23.87;15.38;;;;;;;2.92;74.48;99428.20;1767507;78;21691;-51
2021/04/08 06:33:26;;;;;;;26.75;16.23;;;;;;;2.91;74.38;99426.47;1769739;78;21156;-53
2021/04/08 06:35:54;;;;;;;26.55;17.23;;;;;;;2.89;74.67;99426.52;1772462;78;21140;-51
2021/04/08 06:40:54;;;;;;;22.55;16.57;;;;;;;2.91;74.56;99426.00;1815531;76;22979;-49
2021/04/08 06:43:22;;;;;;;22.80;14.87;;;;;;;2.85;74.70;99427.48;1759874;78;21004;-49
2021/04/08 06:45:52;;;;;;;23.98;16.15;;;;;;;2.87;75.08;99446.95;1764208;78;21196;-50
2021/04/08 06:48:23;;;;;;;24.77;14.98;;;;;;;2.96;75.12;99438.75;1752276;79;20965;-50
2021/04/08 06:50:52;;;;;;;24.92;15.85;;;;;;;3.02;74.45;99446.59;1770500;78;20989;-49
2021/04/08 06:53:21;;;;;;;24.50;17.52;;;;;;;3.03;74.30;99448.34;1762203;78;20992;-47
2021/04/08 06:55:49;;;;;;;29.48;18.70;;;;;;;2.99;74.40;99452.02;1767876;79;20973;-50
2021/04/08 06:58:17;;;;;;;21.82;16.57;;;;;;;2.99;74.71;99453.34;1758090;78;21403;-49
2021/04/08 07:00:47;;;;;;;24.35;15.43;;;;;;;3.09;75.07;99453.54;1754731;78;20972;-49
2021/04/08 07:03:15;;;;;;;24.15;17.65;;;;;;;3.21;75.31;99450.14;1765060;78;21004;-47
2021/04/08 07:05:44;;;;;;;29.90;18.17;;;;;;;3.29;75.29;99454.80;1759265;78;20994;-49
2021/04/08 07:08:12;;;;;;;27.93;17.98;;;;;;;3.39;75.15;99454.99;1761304;78;21142;-51
2021/04/08 07:10:43;;;;;;;26.97;17.87;;;;;;;3.47;75.14;99459.68;1734081;78;21225;-49
2021/04/08 07:13:11;;;;;;;26.85;16.05;;;;;;;3.48;74.22;99460.09;1759575;78;21194;-51
2021/04/08 07:15:41;;;;;;;58.73;18.92;;;;;;;3.44;73.90;99457.08;1759393;78;20981;-51
2021/04/08 07:18:09;;;;;;;30.10;15.88;;;;;;;3.42;74.12;99466.92;1756885;78;21130;-48
2021/04/08 07:20:37;;;;;;;34.95;17.05;;;;;;;3.49;74.35;99465.83;1758725;78;21131;-55
2021/04/08 07:23:10;;;;;;;25.77;18.00;;;;;;;3.54;74.28;99471.92;1760340;78;21198;-48
2021/04/08 07:26:07;;;;;;;24.70;17.02;;;;;;;3.58;74.11;99469.60;1765979;78;21162;-48
2021/04/08 07:28:38;;;;;;;62.20;20.48;;;;;;;3.61;73.99;99473.50;1734228;79;21501;-51
2021/04/08 07:31:28;;;;;;;42.40;19.70;;;;;;;3.58;73.90;99483.39;1759632;78;21533;-50
2021/04/08 07:33:59;;;;;;;37.10;18.70;;;;;;;3.55;73.77;99479.00;1757900;78;21135;-51
2021/04/08 07:36:37;;;;;;;28.70;18.40;;;;;;;3.55;74.10;99490.13;1761530;78;21012;-50
2021/04/08 07:39:17;;;;;;;24.45;17.12;;;;;;;3.55;73.93;99492.79;1758845;78;21128;-50
2021/04/08 07:42:00;;;;;;;27.00;18.00;;;;;;;3.52;73.82;99494.22;1751261;79;21111;-50
2021/04/08 07:44:55;;;;;;;33.13;17.12;;;;;;;3.45;73.68;99496.14;1814516;76;23310;-50
2021/04/08 07:47:32;;;;;;;29.98;17.65;;;;;;;3.34;74.06;99502.20;1769739;77;20966;-50
2021/04/08 07:50:15;;;;;;;31.15;19.42;;;;;;;3.35;74.46;99506.61;1752659;79;21367;-50
2021/04/08 07:52:46;;;;;;;24.87;16.52;;;;;;;3.43;74.75;99507.31;1750266;79;20977;-50
2021/04/08 07:55:19;;;;;;;;;;;;;;;3.53;74.52;99508.83;1753957;79;20986;-50
2021/04/08 07:58:13;;;;;;;21.37;16.50;;;;;;;3.50;74.00;99507.56;1753337;79;20656;-50
2021/04/08 08:00:52;;;;;;;26.52;16.93;;;;;;;3.46;74.25;99519.22;1752005;79;21112;-52
2021/04/08 08:03:26;;;;;;;24.50;18.75;;;;;;;3.47;74.84;99516.99;1752704;79;22506;-48
2021/04/08 08:05:58;;;;;;;22.20;16.37;;;;;;;3.50;74.85;99520.89;1753725;79;21408;-52
2021/04/08 08:08:49;;;;;;;24.37;17.48;;;;;;;3.55;74.43;99529.66;1760660;79;20966;-52
2021/04/08 08:11:18;;;;;;;26.48;17.50;;;;;;;3.56;74.27;99532.73;1755112;79;21098;-53
2021/04/08 08:13:54;;;;;;;25.20;16.40;;;;;;;3.62;74.65;99533.03;1753647;79;20966;-57
2021/04/08 08:16:27;;;;;;;31.27;19.10;;;;;;;3.74;74.29;99535.87;1752006;79;21334;-53
2021/04/08 08:18:59;;;;;;;23.27;16.23;;;;;;;3.72;73.19;99540.34;1750491;79;21621;-54
2021/04/08 08:21:36;;;;;;;25.68;17.37;;;;;;;3.61;72.83;99537.49;1755221;79;21162;-51
2021/04/08 08:24:11;;;;;;;26.52;18.73;;;;;;;3.59;72.99;99546.45;1748065;79;21100;-51
2021/04/08 08:26:42;;;;;;;25.52;18.00;;;;;;;3.62;73.11;99541.03;1760116;79;21502;-52
2021/04/08 08:29:20;;;;;;;24.20;16.00;;;;;;;3.74;73.39;99542.53;1716693;81;21445;-52
2021/04/08 08:31:58;;;;;;;25.88;16.07;;;;;;;3.85;72.79;99545.80;1715026;81;21199;-51
2021/04/08 08:34:30;;;;;;;28.32;16.75;;;;;;;3.87;72.12;99551.95;1690871;82;21070;-50
2021/04/08 08:37:02;;;;;;;25.70;17.48;;;;;;;3.91;72.21;99550.96;1688786;82;21590;-51
2021/04/08 08:39:33;;;;;;;23.10;16.07;;;;;;;4.02;72.08;99558.22;1717131;81;21903;-52
2021/04/08 08:42:06;;;;;;;23.57;16.80;;;;;;;4.15;71.82;99560.95;1694549;82;21034;-51
2021/04/08 08:44:34;;;;;;;;;;;;;;;4.28;71.51;99559.30;1691135;82;21195;-52
2021/04/08 08:47:10;;;;;;;21.65;15.40;;;;;;;4.38;70.92;99556.80;1686163;82;20281;-52
2021/04/08 08:49:47;;;;;;;23.42;15.58;;;;;;;4.50;70.45;99561.78;1739433;79;21092;-52
2021/04/08 08:52:20;;;;;;;23.25;15.78;;;;;;;4.61;69.61;99561.01;1741907;80;20947;-52
2021/04/08 08:54:56;;;;;;;20.68;14.25;;;;;;;4.71;68.49;99557.15;1826099;77;22716;-52
2021/04/08 08:57:25;;;;;;;21.00;14.13;;;;;;;4.66;67.72;99565.76;1791080;78;20989;-51
2021/04/08 08:59:53;;;;;;;22.55;16.73;;;;;;;4.66;67.40;99561.75;1794453;78;21548;-51
2021/04/08 09:02:21;;;;;;;27.65;15.35;;;;;;;4.66;67.27;99557.74;1792564;78;21010;-51
2021/04/08 09:04:50;;;;;;;27.15;14.75;;;;;;;4.68;66.77;99567.91;1796569;78;21646;-49
2021/04/08 09:07:18;;;;;;;20.50;14.50;;;;;;;4.64;66.74;99568.94;1790890;78;21025;-51
2021/04/08 09:09:49;;;;;;;23.55;15.18;;;;;;;4.64;67.23;99564.94;1759192;78;20974;-49
2021/04/08 09:12:19;;;;;;;23.65;16.20;;;;;;;4.72;67.11;99566.91;1790006;78;22275;-52
2021/04/08 09:14:47;;;;;;;25.68;15.43;;;;;;;4.81;66.97;99571.58;1788676;78;21565;-48
2021/04/08 09:17:40;;;;;;;23.30;14.25;;;;;;;4.88;66.33;99571.33;1793569;78;21486;-50
2021/04/08 09:20:12;;;;;;;22.13;14.95;;;;;;;4.96;65.52;99571.12;1788701;78;21620;-52
2021/04/08 09:22:57;;;;;;;21.87;15.00;;;;;;;5.02;64.91;99576.27;1787481;78;20960;-53
2021/04/08 09:25:32;;;;;;;19.40;13.72;;;;;;;5.07;64.68;99566.32;1790899;78;21202;-54
2021/04/08 09:28:07;;;;;;;20.50;14.45;;;;;;;5.13;63.17;99568.80;1788017;78;21072;-52
2021/04/08 09:31:07;;;;;;;20.27;13.30;;;;;;;5.23;61.72;99567.59;1789108;78;21124;-52
2021/04/08 09:33:56;;;;;;;16.77;11.38;;;;;;;5.32;60.98;99570.88;1788864;78;20978;-53
2021/04/08 09:36:37;;;;;;;15.85;11.48;;;;;;;5.37;60.44;99575.62;1790300;78;21072;-55
2021/04/08 09:39:10;;;;;;;16.80;12.05;;;;;;;5.41;59.59;99575.94;1789256;78;22274;-53
2021/04/08 09:41:44;;;;;;;16.00;12.53;;;;;;;5.49;59.79;99568.56;1789108;78;21136;-55
2021/04/08 09:44:13;;;;;;;18.07;12.30;;;;;;;5.57;59.94;99572.31;1797415;78;21128;-48
2021/04/08 09:47:00;;;;;;;19.32;12.37;;;;;;;5.63;59.61;99570.30;1793850;78;21132;-51
2021/04/08 09:49:43;;;;;;;18.05;13.28;;;;;;;5.68;59.03;99579.52;1789936;78;21112;-57
2021/04/08 09:52:12;;;;;;;15.93;11.53;;;;;;;5.72;59.26;99575.35;1790375;78;21984;-59
2021/04/08 09:54:44;;;;;;;17.70;12.53;;;;;;;5.79;58.21;99580.03;1789710;78;21163;-58
2021/04/08 09:57:12;;;;;;;17.80;9.75;;;;;;;5.90;57.37;99576.98;1791283;78;20970;-59
2021/04/08 09:59:59;;;;;;;10.38;8.53;;;;;;;6.03;56.08;99577.03;1790799;78;21091;-57
2021/04/08 10:02:27;;;;;;;13.80;9.48;;;;;;;6.11;54.76;99578.96;1791109;78;21084;-59
2021/04/08 10:05:09;;;;;;;12.05;9.05;;;;;;;6.16;53.70;99574.79;1791812;78;21412;-55
2021/04/08 10:07:53;;;;;;;14.13;9.25;;;;;;;6.15;53.16;99578.40;1791996;78;21013;-57
2021/04/08 10:10:25;;;;;;;12.82;9.23;;;;;;;6.20;53.27;99578.64;1795507;78;21005;-53
2021/04/08 10:12:53;;;;;;;11.10;8.78;;;;;;;6.28;52.89;99576.59;1793091;78;21109;-56
2021/04/08 10:15:34;;;;;;;9.88;7.72;;;;;;;6.30;52.76;99590.78;1791724;78;21128;-51
2021/04/08 10:18:19;;;;;;;14.85;8.88;;;;;;;6.23;51.18;99585.68;1793359;78;21419;-51
2021/04/08 10:20:49;;;;;;;13.08;8.95;;;;;;;6.16;52.15;99590.39;1791502;78;21148;-53
2021/04/08 10:23:38;;;;;;;15.55;9.38;;;;;;;6.13;53.04;99582.48;1794763;78;21159;-53
2021/04/08 10:26:12;;;;;;;14.63;7.67;;;;;;;6.14;53.17;99589.58;1792720;78;21552;-53
2021/04/08 10:28:49;;;;;;;10.90;7.85;;;;;;;6.16;51.46;99590.39;1790558;78;20957;-51
2021/04/08 10:31:25;;;;;;;10.72;7.65;;;;;;;6.18;51.05;99595.24;1789304;78;21361;-52
2021/04/08 10:34:07;;;;;;;12.95;8.13;;;;;;;6.14;50.83;99597.61;1790257;78;21045;-53
2021/04/08 10:36:41;;;;;;;11.10;8.18;;;;;;;6.12;50.83;99594.09;1797953;78;21149;-53
2021/04/08 10:39:18;;;;;;;11.35;7.80;;;;;;;6.09;50.54;99588.86;1791235;78;20997;-52
2021/04/08 10:42:04;;;;;;;10.08;7.78;;;;;;;6.19;50.64;99594.31;1801935;76;23463;-51
2021/04/08 10:44:50;;;;;;;10.50;7.00;;;;;;;6.18;49.90;99593.91;1755660;79;20914;-52
2021/04/08 10:47:21;;;;;;;12.10;7.35;;;;;;;6.17;48.71;99600.16;1757892;79;22094;-53
2021/04/08 10:49:59;;;;;;;9.78;7.25;;;;;;;6.12;48.51;99602.13;1759305;79;21133;-54
2021/04/08 10:52:30;;;;;;;9.50;7.00;;;;;;;6.09;48.93;99595.55;1756928;79;21160;-52
2021/04/08 10:55:01;;;;;;;10.60;7.13;;;;;;;6.08;49.34;99588.45;1756690;79;20997;-53
2021/04/08 10:57:29;;;;;;;11.48;7.30;;;;;;;6.10;49.05;99593.28;1758265;79;20969;-52
2021/04/08 10:59:58;;;;;;;9.15;6.17;;;;;;;6.14;48.91;99590.91;1757407;79;21433;-52
2021/04/08 11:02:35;;;;;;;10.98;6.45;;;;;;;6.18;47.58;99599.26;1758676;79;21032;-50
2021/04/08 11:05:08;;;;;;;10.82;6.47;;;;;;;6.20;47.35;99589.36;1763698;79;20934;-52
2021/04/08 11:07:39;;;;;;;13.10;7.35;;;;;;;6.23;47.51;99593.28;1759434;79;21627;-52
2021/04/08 11:10:14;;;;;;;12.50;7.78;;;;;;;6.33;47.89;99592.93;1762499;79;21303;-51
2021/04/08 11:12:42;;;;;;;10.20;7.33;;;;;;;6.47;47.74;99587.97;1764257;79;21332;-49
2021/04/08 11:15:12;;;;;;;8.90;6.87;;;;;;;6.60;47.28;99599.97;1763865;78;21052;-50
2021/04/08 11:17:47;;;;;;;8.75;6.40;;;;;;;6.68;46.70;99601.92;1763030;79;21009;-51
2021/04/08 11:20:16;;;;;;;8.38;5.92;;;;;;;6.69;45.60;99592.94;1735982;79;21108;-52
2021/04/08 11:22:46;;;;;;;10.00;6.33;;;;;;;6.68;45.60;99597.90;1765027;79;21110;-51
2021/04/08 11:25:15;;;;;;;9.83;6.28;;;;;;;6.71;45.98;99593.78;1764142;79;21371;-50
2021/04/08 11:27:44;;;;;;;9.28;7.17;;;;;;;6.79;46.34;99599.71;1758901;79;21140;-50
2021/04/08 11:30:16;;;;;;;12.70;7.33;;;;;;;6.92;46.58;99593.88;1761289;79;21116;-49
2021/04/08 11:32:47;;;;;;;13.75;7.92;;;;;;;7.04;46.48;99590.75;1764408;78;21172;-50
2021/04/08 11:35:41;;;;;;;12.13;6.58;;;;;;;7.10;46.37;99613.30;1759890;79;21139;-50
2021/04/08 11:38:17;;;;;;;10.32;6.33;;;;;;;7.04;45.75;99606.84;1757858;79;21226;-56
2021/04/08 11:40:48;;;;;;;11.65;7.10;;;;;;;6.95;46.28;99608.52;1758373;79;21131;-54
2021/04/08 11:43:29;;;;;;;9.35;6.25;;;;;;;6.79;46.72;99623.83;1752361;79;20978;-54
2021/04/08 11:45:59;;;;;;;;;;;;;;;6.64;47.78;99619.03;1761574;79;21006;-53
2021/04/08 11:48:41;;;;;;;10.05;6.55;;;;;;;6.53;48.11;99622.09;1750549;79;20251;-54
2021/04/08 11:51:10;;;;;;;12.50;7.25;;;;;;;6.51;48.69;99624.44;1750070;79;22167;-56
2021/04/08 11:53:40;;;;;;;10.78;7.35;;;;;;;6.52;51.69;99628.86;1748027;79;21237;-58
2021/04/08 11:56:33;;;;;;;12.45;7.85;;;;;;;6.42;52.92;99636.81;1754171;79;21013;-54
2021/04/08 11:59:19;;;;;;;10.48;7.75;;;;;;;6.33;53.56;99631.30;1752525;79;21152;-58